Time;durP1;ratioP1;P1;durP2;ratioP2;P2;SDS_P1;SDS_P2;PMS_P1;PMS_P2;Temp;Humidity;BMP_temperature;BMP_pressure;BME280_temperature;BME280_humidity;BME280_pressure;Samples;Min_cycle;Max_cycle;Signal;HPM_P1;HPM_P2
2022/07/16 00:02:30;;;;;;;2.10;2.00;;;;;;;;;;4993694;28;20339;-86
2022/07/16 00:04:58;;;;;;;2.77;2.27;;;;;;;;;;4976216;28;20232;-86
2022/07/16 00:07:25;;;;;;;2.00;1.90;;;;;;;;;;4993617;28;20204;-87
2022/07/16 00:09:52;;;;;;;2.17;2.07;;;;;;;;;;4993754;28;20255;-87
2022/07/16 00:12:20;;;;;;;2.00;1.80;;;;;;;;;;5006952;28;20231;-86
2022/07/16 00:14:47;;;;;;;4.57;2.77;;;;;;;;;;5011958;28;20208;-87
2022/07/16 00:17:14;;;;;;;3.03;2.50;;;;;;;;;;4979782;28;20629;-87
2022/07/16 00:19:41;;;;;;;2.33;2.13;;;;;;;;;;4995721;28;20200;-87
2022/07/16 00:22:08;;;;;;;3.03;2.63;;;;;;;;;;5012490;28;20207;-86
2022/07/16 00:24:36;;;;;;;2.40;2.03;;;;;;;;;;5012443;28;20235;-87
2022/07/16 00:27:03;;;;;;;5.63;2.10;;;;;;;;;;5012311;28;20203;-87
2022/07/16 00:29:31;;;;;;;2.20;2.00;;;;;;;;;;4996302;28;20211;-87
2022/07/16 00:31:58;;;;;;;3.13;2.17;;;;;;;;;;5012127;28;20211;-87
2022/07/16 00:34:25;;;;;;;5.43;2.70;;;;;;;;;;5012279;28;20207;-87
2022/07/16 00:36:56;;;;;;;2.27;2.17;;;;;;;;;;5011256;28;20203;-87
2022/07/16 00:39:24;;;;;;;319.53;30.70;;;;;;;;;;5012138;28;20559;-88
2022/07/16 00:41:51;;;;;;;4.17;3.07;;;;;;;;;;4995550;28;20203;-87
2022/07/16 00:44:20;;;;;;;2.87;2.37;;;;;;;;;;5011383;28;20237;-87
2022/07/16 00:46:49;;;;;;;4.50;2.07;;;;;;;;;;5011767;28;20211;-87
2022/07/16 00:49:17;;;;;;;8.20;2.30;;;;;;;;;;5012783;28;20258;-87
2022/07/16 00:51:46;;;;;;;2.07;1.87;;;;;;;;;;5011649;28;20269;-87
2022/07/16 00:54:15;;;;;;;3.27;2.30;;;;;;;;;;5012038;28;20218;-88
2022/07/16 00:56:43;;;;;;;2.90;1.93;;;;;;;;;;5011703;28;20220;-87
2022/07/16 00:59:10;;;;;;;3.70;2.33;;;;;;;;;;5011164;28;20207;-87
2022/07/16 01:01:38;;;;;;;5.23;2.23;;;;;;;;;;5012502;28;20647;-86
2022/07/16 01:04:05;;;;;;;2.10;2.00;;;;;;;;;;5012091;28;20230;-86
2022/07/16 01:06:33;;;;;;;2.40;2.20;;;;;;;;;;5010953;28;20211;-86
2022/07/16 01:09:00;;;;;;;4.10;2.17;;;;;;;;;;5011115;28;20295;-86
2022/07/16 01:11:31;;;;;;;2.33;2.13;;;;;;;;;;5020124;28;20234;-87
2022/07/16 01:13:59;;;;;;;3.63;1.90;;;;;;;;;;5032511;28;20214;-87
2022/07/16 01:16:26;;;;;;;3.90;2.10;;;;;;;;;;5014562;28;20673;-88
2022/07/16 01:18:53;;;;;;;2.43;2.23;;;;;;;;;;4998802;28;20229;-87
2022/07/16 01:21:21;;;;;;;3.33;2.43;;;;;;;;;;5014359;28;20692;-88
2022/07/16 01:23:49;;;;;;;2.17;2.07;;;;;;;;;;5014710;28;20264;-87
2022/07/16 01:26:17;;;;;;;2.33;1.93;;;;;;;;;;5032161;28;20207;-88
2022/07/16 01:28:45;;;;;;;2.57;2.37;;;;;;;;;;5032096;28;20211;-87
2022/07/16 01:31:13;;;;;;;2.27;2.07;;;;;;;;;;5031684;28;20214;-86
2022/07/16 01:33:41;;;;;;;9.33;2.60;;;;;;;;;;5031833;28;20206;-87
2022/07/16 01:36:10;;;;;;;2.90;2.50;;;;;;;;;;5031375;28;20202;-87
2022/07/16 01:38:39;;;;;;;2.07;1.80;;;;;;;;;;5031378;28;20233;-86
2022/07/16 01:41:07;;;;;;;10.33;2.87;;;;;;;;;;5031417;28;20297;-87
2022/07/16 01:43:35;;;;;;;9.20;2.43;;;;;;;;;;5031740;28;20210;-87
2022/07/16 01:46:02;;;;;;;2.23;2.13;;;;;;;;;;5031630;28;20234;-88
2022/07/16 01:48:31;;;;;;;2.23;2.03;;;;;;;;;;5031565;28;20206;-86
2022/07/16 01:50:59;;;;;;;2.43;2.20;;;;;;;;;;5031249;28;20207;-86
2022/07/16 01:53:28;;;;;;;7.90;2.10;;;;;;;;;;5013804;28;20268;-86
2022/07/16 01:55:55;;;;;;;3.70;2.20;;;;;;;;;;5030857;28;20202;-85
2022/07/16 01:58:24;;;;;;;5.63;2.70;;;;;;;;;;5014822;28;20265;-85
2022/07/16 02:00:51;;;;;;;4.40;2.57;;;;;;;;;;5035004;28;20230;-85
2022/07/16 02:03:19;;;;;;;5.10;2.17;;;;;;;;;;5016932;28;20215;-85
2022/07/16 02:05:47;;;;;;;2.67;2.10;;;;;;;;;;5017341;28;20606;-86
2022/07/16 02:08:15;;;;;;;3.53;2.30;;;;;;;;;;5034789;28;20566;-86
2022/07/16 02:10:42;;;;;;;2.40;1.93;;;;;;;;;;5034508;28;20650;-86
2022/07/16 02:13:09;;;;;;;5.73;2.53;;;;;;;;;;5035153;28;20241;-87
2022/07/16 02:15:38;;;;;;;4.03;2.70;;;;;;;;;;5017306;28;20210;-86
2022/07/16 02:18:06;;;;;;;3.73;2.40;;;;;;;;;;5035095;28;20260;-86
2022/07/16 02:20:33;;;;;;;2.67;2.47;;;;;;;;;;5035694;28;20209;-86
2022/07/16 02:23:00;;;;;;;3.07;2.80;;;;;;;;;;5017716;28;20207;-87
2022/07/16 02:25:29;;;;;;;2.97;2.60;;;;;;;;;;5017854;28;20226;-87
2022/07/16 02:28:08;;;;;;;2.23;2.13;;;;;;;;;;5016986;28;20203;-87
2022/07/16 02:30:36;;;;;;;2.23;2.10;;;;;;;;;;5035090;28;20268;-87
2022/07/16 02:33:05;;;;;;;3.70;1.97;;;;;;;;;;5017376;28;20202;-87
2022/07/16 02:35:33;;;;;;;6.37;2.13;;;;;;;;;;5016956;28;20244;-87
2022/07/16 02:38:00;;;;;;;2.23;2.10;;;;;;;;;;5034552;28;20268;-86
2022/07/16 02:40:27;;;;;;;3.07;2.10;;;;;;;;;;5016758;28;20210;-85
2022/07/16 02:42:54;;;;;;;2.60;2.40;;;;;;;;;;5034895;28;20203;-86
2022/07/16 02:45:22;;;;;;;3.70;2.13;;;;;;;;;;5000497;28;20288;-86
2022/07/16 02:47:49;;;;;;;2.63;2.20;;;;;;;;;;5034480;28;20211;-86
2022/07/16 02:50:17;;;;;;;2.53;2.33;;;;;;;;;;5016572;28;20268;-86
2022/07/16 02:52:45;;;;;;;2.67;2.47;;;;;;;;;;5016681;28;20217;-85
2022/07/16 02:55:12;;;;;;;2.00;1.90;;;;;;;;;;5016195;28;20276;-86
2022/07/16 02:57:40;;;;;;;4.33;2.10;;;;;;;;;;5016247;28;20211;-86
2022/07/16 03:00:08;;;;;;;2.27;2.07;;;;;;;;;;5016636;28;20210;-85
2022/07/16 03:02:35;;;;;;;2.83;2.40;;;;;;;;;;5033610;28;20209;-84
2022/07/16 03:05:03;;;;;;;5.07;3.03;;;;;;;;;;5015739;28;20218;-84
2022/07/16 03:07:32;;;;;;;6.63;2.90;;;;;;;;;;5032610;28;20199;-85
2022/07/16 03:09:59;;;;;;;12.07;2.13;;;;;;;;;;5032304;28;20597;-84
2022/07/16 03:12:26;;;;;;;2.63;2.43;;;;;;;;;;5033653;28;20227;-85
2022/07/16 03:14:54;;;;;;;3.07;2.33;;;;;;;;;;5016054;28;20750;-85
2022/07/16 03:17:21;;;;;;;2.27;2.07;;;;;;;;;;5016162;28;20280;-86
2022/07/16 03:19:48;;;;;;;2.63;2.00;;;;;;;;;;5016073;28;20685;-87
2022/07/16 03:22:18;;;;;;;2.70;2.50;;;;;;;;;;5033549;28;20211;-85
2022/07/16 03:24:46;;;;;;;4.13;2.00;;;;;;;;;;5033225;28;20230;-87
2022/07/16 03:27:14;;;;;;;3.87;2.17;;;;;;;;;;5016366;28;20211;-88
2022/07/16 03:29:41;;;;;;;2.57;2.00;;;;;;;;;;5016356;28;20207;-85
2022/07/16 03:32:08;;;;;;;2.70;2.20;;;;;;;;;;5033159;28;20214;-84
2022/07/16 03:34:36;;;;;;;3.57;2.13;;;;;;;;;;5014140;28;20325;-81
2022/07/16 03:37:03;;;;;;;2.13;1.77;;;;;;;;;;5013034;28;20202;-80
2022/07/16 03:39:30;;;;;;;2.03;1.73;;;;;;;;;;5031279;28;20574;-81
2022/07/16 03:41:59;;;;;;;1.97;1.87;;;;;;;;;;4997263;28;20207;-81
2022/07/16 03:44:29;;;;;;;2.83;2.07;;;;;;;;;;5013488;28;20685;-81
2022/07/16 03:46:57;;;;;;;2.03;1.80;;;;;;;;;;5031091;28;20213;-81
2022/07/16 03:49:24;;;;;;;1.90;1.80;;;;;;;;;;5013545;28;20198;-80
2022/07/16 03:51:51;;;;;;;4.93;2.57;;;;;;;;;;5027831;28;20203;-81
2022/07/16 03:54:18;;;;;;;2.20;2.00;;;;;;;;;;5030859;28;20648;-80
2022/07/16 03:56:46;;;;;;;8.30;6.47;;;;;;;;;;5014559;28;20281;-81
2022/07/16 03:59:14;;;;;;;11.57;8.30;;;;;;;;;;5014745;28;20692;-81
2022/07/16 04:01:42;;;;;;;8.80;8.03;;;;;;;;;;4997900;28;20644;-82
2022/07/16 04:04:09;;;;;;;10.17;7.77;;;;;;;;;;4997922;28;20265;-81
2022/07/16 04:06:36;;;;;;;7.03;2.80;;;;;;;;;;5014256;28;20643;-81
2022/07/16 04:09:03;;;;;;;3.70;2.30;;;;;;;;;;5014706;28;20221;-81
2022/07/16 04:11:30;;;;;;;5.87;3.77;;;;;;;;;;4998045;28;20235;-81
2022/07/16 04:13:57;;;;;;;5.50;5.00;;;;;;;;;;5014469;28;20202;-82
2022/07/16 04:16:26;;;;;;;21.73;19.63;;;;;;;;;;5031677;28;20264;-81
2022/07/16 04:18:53;;;;;;;20.73;18.53;;;;;;;;;;5013761;28;20207;-81
2022/07/16 04:21:20;;;;;;;38.53;34.43;;;;;;;;;;5031490;28;20210;-81
2022/07/16 04:23:47;;;;;;;37.00;31.80;;;;;;;;;;5031766;28;20685;-80
2022/07/16 04:26:14;;;;;;;14.57;13.17;;;;;;;;;;4981684;28;20226;-81
2022/07/16 04:28:41;;;;;;;4.90;4.00;;;;;;;;;;4997406;28;20207;-81
2022/07/16 04:31:08;;;;;;;57.00;48.37;;;;;;;;;;5031146;28;20680;-81
2022/07/16 04:33:37;;;;;;;26.83;23.70;;;;;;;;;;5014121;28;20270;-81
2022/07/16 04:36:06;;;;;;;61.07;51.40;;;;;;;;;;5013522;28;20219;-81
2022/07/16 04:38:33;;;;;;;15.10;13.53;;;;;;;;;;5014356;28;20260;-83
2022/07/16 04:41:00;;;;;;;33.37;29.93;;;;;;;;;;5013651;28;20213;-83
2022/07/16 04:43:27;;;;;;;18.33;16.37;;;;;;;;;;5013891;28;20207;-83
2022/07/16 04:45:54;;;;;;;80.97;58.63;;;;;;;;;;5013238;28;20250;-82
2022/07/16 04:48:21;;;;;;;64.93;46.60;;;;;;;;;;5014199;28;20289;-82
2022/07/16 04:50:50;;;;;;;104.17;71.00;;;;;;;;;;5013535;28;20704;-81
2022/07/16 04:53:17;;;;;;;39.87;28.60;;;;;;;;;;5013515;28;20265;-82
2022/07/16 04:55:44;;;;;;;51.93;40.27;;;;;;;;;;5012780;28;20218;-83
2022/07/16 04:58:11;;;;;;;22.70;20.43;;;;;;;;;;5013543;28;20199;-83
2022/07/16 05:00:38;;;;;;;61.80;45.57;;;;;;;;;;5013105;28;20221;-83
2022/07/16 05:03:06;;;;;;;12.10;10.00;;;;;;;;;;5013657;28;20210;-84
2022/07/16 05:05:35;;;;;;;6.90;4.90;;;;;;;;;;5030472;28;20759;-83
2022/07/16 05:08:06;;;;;;;15.50;11.87;;;;;;;;;;5013800;28;20238;-84
2022/07/16 05:10:34;;;;;;;55.37;44.37;;;;;;;;;;5030791;28;20202;-84
2022/07/16 05:13:02;;;;;;;49.90;39.67;;;;;;;;;;5011409;28;20218;-83
2022/07/16 05:15:30;;;;;;;57.40;43.10;;;;;;;;;;4998678;28;20576;-84
2022/07/16 05:17:57;;;;;;;50.90;36.27;;;;;;;;;;5031106;28;20685;-83
2022/07/16 05:20:25;;;;;;;42.80;34.67;;;;;;;;;;5013373;28;20677;-83
2022/07/16 05:22:53;;;;;;;183.67;131.97;;;;;;;;;;5013293;28;20617;-81
2022/07/16 05:25:22;;;;;;;83.73;59.30;;;;;;;;;;4996522;28;20299;-81
2022/07/16 05:27:49;;;;;;;59.03;44.43;;;;;;;;;;5031023;28;20202;-83
2022/07/16 05:30:17;;;;;;;23.37;20.27;;;;;;;;;;5030827;28;20202;-83
2022/07/16 05:32:45;;;;;;;12.00;10.93;;;;;;;;;;5012016;28;20210;-84
2022/07/16 05:35:13;;;;;;;7.80;6.93;;;;;;;;;;5030378;28;20206;-83
2022/07/16 05:37:40;;;;;;;4.60;3.70;;;;;;;;;;5030275;28;20203;-85
2022/07/16 05:40:08;;;;;;;3.93;2.37;;;;;;;;;;5030513;28;20209;-84
2022/07/16 05:42:37;;;;;;;9.77;6.97;;;;;;;;;;5030282;28;20209;-83
2022/07/16 05:45:05;;;;;;;2.37;2.17;;;;;;;;;;4996688;28;20210;-83
2022/07/16 05:47:33;;;;;;;9.67;8.77;;;;;;;;;;5012760;28;20337;-83
2022/07/16 05:50:00;;;;;;;21.33;15.57;;;;;;;;;;5030529;28;20206;-83
2022/07/16 05:52:28;;;;;;;5.10;3.63;;;;;;;;;;5012794;28;20282;-83
2022/07/16 05:54:55;;;;;;;5.07;2.97;;;;;;;;;;5012529;28;20199;-83
2022/07/16 05:57:22;;;;;;;2.00;1.90;;;;;;;;;;5030771;28;20213;-83
2022/07/16 05:59:50;;;;;;;3.47;2.83;;;;;;;;;;5030679;28;20720;-84
2022/07/16 06:02:21;;;;;;;3.73;2.87;;;;;;;;;;5012421;28;20202;-89
2022/07/16 06:04:49;;;;;;;1.67;1.57;;;;;;;;;;5030494;28;20206;-91
2022/07/16 06:07:16;;;;;;;3.97;1.90;;;;;;;;;;5007553;28;20720;-91
2022/07/16 06:09:44;;;;;;;4.30;1.87;;;;;;;;;;5029935;28;20276;-89
2022/07/16 06:12:11;;;;;;;2.73;2.40;;;;;;;;;;5030374;28;20272;-90
2022/07/16 06:14:42;;;;;;;2.07;1.90;;;;;;;;;;5010233;28;20207;-91
2022/07/16 06:17:11;;;;;;;2.93;1.90;;;;;;;;;;5030246;28;20222;-86
2022/07/16 06:19:41;;;;;;;7.87;3.53;;;;;;;;;;5030274;28;20214;-86
2022/07/16 06:22:10;;;;;;;3.97;2.40;;;;;;;;;;5013229;28;20579;-87
2022/07/16 06:24:37;;;;;;;5.53;5.10;;;;;;;;;;5030213;28;20217;-86
2022/07/16 06:27:04;;;;;;;2.67;2.47;;;;;;;;;;5030058;28;20227;-87
2022/07/16 06:29:33;;;;;;;1.87;1.77;;;;;;;;;;5013244;28;20635;-85
2022/07/16 06:32:01;;;;;;;2.17;2.07;;;;;;;;;;5012371;28;20206;-88
2022/07/16 06:34:30;;;;;;;2.90;2.03;;;;;;;;;;5012173;28;20206;-88
2022/07/16 06:36:58;;;;;;;1.80;1.70;;;;;;;;;;5012627;28;20727;-87
2022/07/16 06:39:25;;;;;;;5.27;2.30;;;;;;;;;;5030527;28;20214;-86
2022/07/16 06:41:53;;;;;;;2.10;1.90;;;;;;;;;;5013486;28;20198;-86
2022/07/16 06:44:22;;;;;;;3.17;2.23;;;;;;;;;;5018257;28;20194;-93
2022/07/16 06:46:49;;;;;;;2.00;1.90;;;;;;;;;;5029604;28;20231;-82
2022/07/16 06:49:18;;;;;;;2.60;2.40;;;;;;;;;;5011229;28;20211;-82
2022/07/16 06:51:47;;;;;;;2.00;1.90;;;;;;;;;;5025680;28;21010;-83
2022/07/16 06:54:14;;;;;;;3.60;2.42;;;;;;;;;;5032136;28;20585;-83
2022/07/16 06:56:41;;;;;;;6.00;1.90;;;;;;;;;;5027272;28;20210;-82
2022/07/16 06:59:08;;;;;;;2.08;1.90;;;;;;;;;;5015226;28;20747;-86
2022/07/16 07:01:36;;;;;;;2.08;1.88;;;;;;;;;;5015409;28;20216;-85
2022/07/16 07:04:02;;;;;;;3.33;2.05;;;;;;;;;;5031375;28;20213;-84
2022/07/16 07:06:29;;;;;;;2.47;2.00;;;;;;;;;;5031988;28;20218;-84
2022/07/16 07:08:58;;;;;;;2.55;1.80;;;;;;;;;;5031748;28;20206;-85
2022/07/16 07:11:25;;;;;;;1.92;1.73;;;;;;;;;;5031388;28;20226;-82
2022/07/16 07:13:52;;;;;;;3.33;2.25;;;;;;;;;;5032060;28;20195;-81
2022/07/16 07:16:19;;;;;;;2.15;2.00;;;;;;;;;;5032173;28;20202;-82
2022/07/16 07:18:48;;;;;;;3.53;2.17;;;;;;;;;;5015229;28;20211;-85
2022/07/16 07:21:15;;;;;;;3.03;2.28;;;;;;;;;;5032545;28;20203;-85
2022/07/16 07:23:43;;;;;;;3.13;2.10;;;;;;;;;;5014597;28;20688;-80
2022/07/16 07:26:12;;;;;;;2.10;1.88;;;;;;;;;;5031981;28;20234;-81
2022/07/16 07:28:39;;;;;;;4.45;2.25;;;;;;;;;;5015087;28;20203;-82
2022/07/16 07:31:06;;;;;;;2.60;1.90;;;;;;;;;;5032240;28;20217;-80
2022/07/16 07:33:34;;;;;;;2.45;1.73;;;;;;;;;;5032546;28;20199;-85
2022/07/16 07:36:01;;;;;;;1.80;1.70;;;;;;;;;;4998600;28;20217;-84
2022/07/16 07:38:27;;;;;;;1.52;1.42;;;;;;;;;;5015031;28;20207;-85
2022/07/16 07:40:54;;;;;;;1.80;1.70;;;;;;;;;;5014594;28;20203;-83
2022/07/16 07:43:23;;;;;;;2.63;1.55;;;;;;;;;;5032386;28;20207;-83
2022/07/16 07:45:50;;;;;;;2.22;2.03;;;;;;;;;;5032300;28;20211;-84
2022/07/16 07:48:18;;;;;;;3.85;3.55;;;;;;;;;;5014769;28;20202;-81
2022/07/16 07:50:45;;;;;;;4.40;2.03;;;;;;;;;;5012402;28;20268;-82
2022/07/16 07:53:12;;;;;;;1.70;1.60;;;;;;;;;;5030686;28;20207;-81
2022/07/16 07:55:39;;;;;;;2.08;1.80;;;;;;;;;;5000092;28;20276;-80
2022/07/16 07:58:06;;;;;;;2.00;1.90;;;;;;;;;;5030683;28;20203;-82
2022/07/16 08:00:35;;;;;;;2.17;1.95;;;;;;;;;;5029617;28;20195;-81
2022/07/16 08:03:02;;;;;;;2.78;2.50;;;;;;;;;;5030622;28;20210;-81
2022/07/16 08:05:30;;;;;;;2.72;2.25;;;;;;;;;;5014242;28;20206;-81
2022/07/16 08:07:57;;;;;;;2.60;2.00;;;;;;;;;;5031636;28;20716;-82
2022/07/16 08:10:24;;;;;;;4.93;2.28;;;;;;;;;;5030714;28;20202;-81
2022/07/16 08:12:54;;;;;;;3.15;2.58;;;;;;;;;;5031271;28;20235;-81
2022/07/16 08:15:21;;;;;;;2.45;1.98;;;;;;;;;;5031291;28;20799;-82
2022/07/16 08:17:50;;;;;;;2.33;2.13;;;;;;;;;;5031389;28;20199;-82
2022/07/16 08:20:17;;;;;;;2.05;1.90;;;;;;;;;;5012744;28;20268;-81
2022/07/16 08:22:44;;;;;;;2.63;1.95;;;;;;;;;;5012493;28;20218;-82
2022/07/16 08:27:55;;;;;;;2.13;1.88;;;;;;;;;;5030388;28;20237;-81
2022/07/16 08:30:22;;;;;;;3.22;2.63;;;;;;;;;;5030156;28;20213;-81
2022/07/16 08:32:51;;;;;;;2.00;1.75;;;;;;;;;;5030587;28;20206;-81
2022/07/16 08:35:18;;;;;;;2.28;2.17;;;;;;;;;;5030404;28;20225;-81
2022/07/16 08:37:50;;;;;;;5.88;2.85;;;;;;;;;;5030190;28;20199;-81
2022/07/16 08:40:21;;;;;;;5.45;2.60;;;;;;;;;;5014304;28;20562;-81
2022/07/16 08:42:49;;;;;;;2.90;2.20;;;;;;;;;;5030090;28;20222;-82
2022/07/16 08:45:17;;;;;;;2.08;1.92;;;;;;;;;;5029896;28;20206;-81
2022/07/16 08:47:44;;;;;;;96.80;12.48;;;;;;;;;;5030868;28;20234;-82
2022/07/16 08:50:15;;;;;;;3.05;2.63;;;;;;;;;;5029849;28;20272;-81
2022/07/16 08:52:43;;;;;;;1.92;1.83;;;;;;;;;;5030989;28;20585;-82
2022/07/16 08:55:11;;;;;;;8.00;2.78;;;;;;;;;;5029785;28;20203;-82
2022/07/16 08:57:41;;;;;;;2.17;2.08;;;;;;;;;;5031061;28;20230;-81
2022/07/16 09:00:10;;;;;;;3.58;3.08;;;;;;;;;;5030678;28;20712;-81
2022/07/16 09:02:37;;;;;;;3.33;2.00;;;;;;;;;;5030930;28;20260;-81
2022/07/16 09:05:08;;;;;;;2.20;2.00;;;;;;;;;;5031035;28;20256;-81
2022/07/16 09:07:37;;;;;;;2.30;2.10;;;;;;;;;;5029458;28;20620;-81
2022/07/16 09:10:05;;;;;;;3.25;2.53;;;;;;;;;;5030726;28;20207;-84
2022/07/16 09:12:34;;;;;;;3.05;2.38;;;;;;;;;;5030473;28;20223;-83
2022/07/16 09:15:02;;;;;;;6.47;5.90;;;;;;;;;;5030512;28;20294;-82
2022/07/16 09:17:29;;;;;;;5.63;4.47;;;;;;;;;;5030310;28;20673;-81
2022/07/16 09:19:57;;;;;;;4.53;3.33;;;;;;;;;;5013260;28;20651;-80
2022/07/16 09:22:25;;;;;;;3.55;3.00;;;;;;;;;;5030597;28;20205;-82
2022/07/16 09:24:55;;;;;;;3.47;2.03;;;;;;;;;;5030311;28;20210;-80
2022/07/16 09:27:27;;;;;;;2.22;2.10;;;;;;;;;;5030315;28;20253;-81
2022/07/16 09:29:58;;;;;;;2.85;2.60;;;;;;;;;;5030571;28;20195;-83
2022/07/16 09:32:30;;;;;;;3.00;2.70;;;;;;;;;;5030620;28;20264;-80
2022/07/16 09:35:04;;;;;;;2.53;2.40;;;;;;;;;;5012995;28;20194;-80
2022/07/16 09:37:45;;;;;;;10.45;9.35;;;;;;;;;;5028499;28;20202;-81
2022/07/16 09:40:15;;;;;;;2.88;2.67;;;;;;;;;;5030316;28;20269;-82
2022/07/16 09:42:43;;;;;;;8.52;7.72;;;;;;;;;;5012284;28;20210;-79
2022/07/16 09:45:20;;;;;;;10.40;9.40;;;;;;;;;;5030422;28;20290;-80
2022/07/16 09:47:48;;;;;;;4.40;2.63;;;;;;;;;;5012471;28;20330;-79
2022/07/16 09:50:15;;;;;;;7.47;6.88;;;;;;;;;;5030231;28;20217;-79
2022/07/16 09:52:42;;;;;;;9.43;8.52;;;;;;;;;;5012408;28;20240;-79
2022/07/16 09:55:10;;;;;;;2.72;2.53;;;;;;;;;;5012524;28;20206;-79
2022/07/16 09:57:38;;;;;;;4.55;4.25;;;;;;;;;;5030078;28;20198;-79
2022/07/16 10:00:07;;;;;;;4.72;4.32;;;;;;;;;;5030397;28;20225;-79
2022/07/16 10:02:42;;;;;;;7.07;4.22;;;;;;;;;;4996075;28;20206;-78
2022/07/16 10:05:10;;;;;;;5.53;3.20;;;;;;;;;;5031344;28;20206;-77
2022/07/16 10:07:37;;;;;;;3.40;3.10;;;;;;;;;;5030408;28;20682;-79
2022/07/16 10:10:05;;;;;;;3.20;3.00;;;;;;;;;;5030070;28;20214;-80
2022/07/16 10:12:32;;;;;;;7.57;3.22;;;;;;;;;;5012085;28;20292;-79
2022/07/16 10:15:03;;;;;;;4.05;2.70;;;;;;;;;;5029986;28;20210;-79
2022/07/16 10:17:35;;;;;;;3.58;3.38;;;;;;;;;;5012454;28;20294;-78
2022/07/16 10:20:08;;;;;;;3.00;2.70;;;;;;;;;;5032572;28;20218;-80
2022/07/16 10:22:38;;;;;;;5.43;4.43;;;;;;;;;;4999782;28;20569;-79
2022/07/16 10:25:12;;;;;;;3.33;3.13;;;;;;;;;;5033903;28;20715;-79
2022/07/16 10:27:41;;;;;;;3.92;3.13;;;;;;;;;;5016071;28;20233;-78
2022/07/16 10:30:26;;;;;;;2.85;2.65;;;;;;;;;;5000453;28;20216;-78
2022/07/16 10:33:12;;;;;;;4.90;3.25;;;;;;;;;;5015889;28;20775;-78
2022/07/16 10:35:44;;;;;;;3.42;2.63;;;;;;;;;;5034084;28;20199;-78
2022/07/16 10:38:13;;;;;;;5.45;2.80;;;;;;;;;;5033396;28;20217;-78
2022/07/16 10:40:43;;;;;;;2.70;2.50;;;;;;;;;;5033399;28;20202;-78
2022/07/16 10:43:15;;;;;;;2.92;2.72;;;;;;;;;;5033424;28;20209;-78
2022/07/16 10:45:56;;;;;;;3.58;2.88;;;;;;;;;;5033094;28;20202;-78
2022/07/16 10:48:25;;;;;;;3.40;2.50;;;;;;;;;;5014856;28;20238;-78
2022/07/16 10:51:15;;;;;;;3.55;2.70;;;;;;;;;;5014963;28;20202;-78
2022/07/16 10:54:27;;;;;;;2.47;2.28;;;;;;;;;;5032000;28;20214;-77
2022/07/16 10:56:56;;;;;;;2.17;1.98;;;;;;;;;;5006151;28;20249;-78
2022/07/16 10:59:24;;;;;;;4.13;3.05;;;;;;;;;;5015903;28;20210;-78
2022/07/16 11:02:00;;;;;;;2.40;2.20;;;;;;;;;;5033049;28;20206;-80
2022/07/16 11:04:39;;;;;;;2.60;2.40;;;;;;;;;;5033608;28;20202;-79
2022/07/16 11:07:11;;;;;;;2.35;2.17;;;;;;;;;;5031637;28;20229;-78
2022/07/16 11:09:39;;;;;;;4.28;2.17;;;;;;;;;;5033104;28;20202;-78
2022/07/16 11:12:12;;;;;;;2.90;2.65;;;;;;;;;;5028191;28;20249;-79
2022/07/16 11:14:44;;;;;;;4.30;3.00;;;;;;;;;;4999447;28;20276;-78
2022/07/16 11:17:13;;;;;;;3.03;2.40;;;;;;;;;;5015260;28;20577;-78
2022/07/16 11:19:43;;;;;;;3.85;2.38;;;;;;;;;;5024727;28;20673;-78
2022/07/16 11:22:10;;;;;;;3.90;2.67;;;;;;;;;;5032960;28;20210;-79
2022/07/16 11:24:45;;;;;;;2.65;2.10;;;;;;;;;;5032128;28;20203;-78
2022/07/16 11:27:12;;;;;;;6.32;2.53;;;;;;;;;;5024844;28;20208;-79
2022/07/16 11:29:40;;;;;;;3.10;2.50;;;;;;;;;;5033148;28;20257;-78
2022/07/16 11:32:07;;;;;;;2.50;2.30;;;;;;;;;;5031497;28;20289;-79
2022/07/16 11:34:38;;;;;;;2.60;2.40;;;;;;;;;;5033102;28;20214;-77
2022/07/16 11:37:05;;;;;;;4.07;2.30;;;;;;;;;;5014836;28;20202;-79
2022/07/16 11:39:32;;;;;;;2.40;2.20;;;;;;;;;;5032735;28;20206;-78
2022/07/16 11:42:01;;;;;;;5.53;2.17;;;;;;;;;;5032321;28;20257;-77
2022/07/16 11:44:30;;;;;;;2.28;2.08;;;;;;;;;;5032563;28;20278;-78
2022/07/16 11:47:00;;;;;;;2.90;2.63;;;;;;;;;;5031879;28;20216;-79
2022/07/16 11:49:29;;;;;;;2.72;2.30;;;;;;;;;;5032142;28;20722;-78
2022/07/16 11:51:59;;;;;;;3.47;2.28;;;;;;;;;;5013909;28;20642;-78
2022/07/16 11:54:28;;;;;;;2.42;2.33;;;;;;;;;;4998362;28;20206;-77
2022/07/16 11:56:56;;;;;;;6.13;2.70;;;;;;;;;;5014122;28;20211;-77
2022/07/16 11:59:24;;;;;;;4.90;2.88;;;;;;;;;;5032064;28;20198;-78
2022/07/16 12:02:02;;;;;;;3.38;2.42;;;;;;;;;;5031976;28;20214;-77
2022/07/16 12:04:34;;;;;;;4.32;2.45;;;;;;;;;;5032114;28;20205;-78
2022/07/16 12:07:03;;;;;;;3.40;2.30;;;;;;;;;;5032090;28;20202;-77
2022/07/16 12:09:32;;;;;;;2.85;2.30;;;;;;;;;;5031847;28;20226;-78
2022/07/16 12:12:00;;;;;;;5.97;2.42;;;;;;;;;;5030538;28;20241;-78
2022/07/16 12:14:42;;;;;;;4.18;2.22;;;;;;;;;;5030810;28;20210;-78
2022/07/16 12:17:22;;;;;;;2.70;2.50;;;;;;;;;;5030969;28;20207;-79
2022/07/16 12:20:06;;;;;;;4.18;2.30;;;;;;;;;;5031262;28;20221;-79
2022/07/16 12:22:52;;;;;;;3.13;2.30;;;;;;;;;;5030935;28;20202;-78
2022/07/16 12:25:22;;;;;;;2.85;2.28;;;;;;;;;;5029964;28;20209;-79
2022/07/16 12:27:51;;;;;;;2.13;2.03;;;;;;;;;;5031765;28;20234;-78
2022/07/16 12:30:19;;;;;;;2.40;2.20;;;;;;;;;;5031689;28;20203;-78
2022/07/16 12:32:49;;;;;;;2.17;2.08;;;;;;;;;;5031458;28;20199;-78
2022/07/16 12:35:39;;;;;;;2.10;2.00;;;;;;;;;;5031711;28;20214;-78
2022/07/16 12:38:07;;;;;;;5.57;2.30;;;;;;;;;;5031846;28;20191;-79
2022/07/16 12:40:35;;;;;;;2.65;1.98;;;;;;;;;;5031478;28;20207;-78
2022/07/16 12:43:03;;;;;;;3.13;2.30;;;;;;;;;;5031218;28;20213;-78
2022/07/16 12:45:30;;;;;;;3.45;2.20;;;;;;;;;;5031119;28;20286;-78
2022/07/16 12:47:56;;;;;;;3.17;2.30;;;;;;;;;;5031379;28;20225;-78
2022/07/16 12:50:23;;;;;;;2.67;1.98;;;;;;;;;;5031079;28;20202;-78
2022/07/16 12:52:50;;;;;;;3.10;2.05;;;;;;;;;;5031448;28;20194;-78
2022/07/16 13:00:47;;;;;;;2.33;2.20;;;;;;;;;;5031134;28;20724;-78
2022/07/16 13:03:14;;;;;;;2.28;2.13;;;;;;;;;;5031244;28;20221;-78
2022/07/16 13:05:40;;;;;;;2.72;2.17;;;;;;;;;;5030908;28;20206;-78
2022/07/16 13:08:07;;;;;;;4.10;2.47;;;;;;;;;;5030636;28;20222;-79
2022/07/16 13:10:38;;;;;;;3.38;2.38;;;;;;;;;;5030814;28;20218;-78
2022/07/16 13:13:04;;;;;;;4.32;2.42;;;;;;;;;;5031506;28;20268;-79
2022/07/16 13:15:31;;;;;;;3.28;2.50;;;;;;;;;;5030954;28;20222;-79
2022/07/16 13:17:58;;;;;;;2.72;2.53;;;;;;;;;;5030827;28;20206;-78
2022/07/16 13:20:25;;;;;;;2.80;2.60;;;;;;;;;;5030624;28;20209;-79
2022/07/16 13:22:51;;;;;;;2.70;2.40;;;;;;;;;;5030647;28;20206;-79
2022/07/16 13:25:18;;;;;;;2.38;2.15;;;;;;;;;;5030622;28;20207;-78
2022/07/16 13:27:47;;;;;;;3.55;2.55;;;;;;;;;;5030710;28;20600;-79
2022/07/16 13:30:13;;;;;;;3.30;2.42;;;;;;;;;;5030520;28;20670;-81
2022/07/16 13:32:40;;;;;;;2.33;2.10;;;;;;;;;;5030826;28;20635;-78
2022/07/16 13:35:08;;;;;;;2.42;2.30;;;;;;;;;;5030846;28;20558;-79
2022/07/16 13:37:34;;;;;;;2.72;2.08;;;;;;;;;;5030606;28;20221;-79
2022/07/16 13:40:01;;;;;;;3.35;2.67;;;;;;;;;;5030984;28;20202;-78
2022/07/16 13:42:28;;;;;;;2.53;2.33;;;;;;;;;;5030394;28;20202;-79
2022/07/16 13:44:56;;;;;;;5.45;2.33;;;;;;;;;;5029226;28;20238;-79
2022/07/16 13:47:23;;;;;;;2.33;2.13;;;;;;;;;;5011908;28;20693;-79
2022/07/16 13:49:50;;;;;;;3.08;2.60;;;;;;;;;;5012681;28;20655;-80
2022/07/16 13:52:18;;;;;;;2.75;2.30;;;;;;;;;;5029840;28;20214;-79
2022/07/16 13:54:47;;;;;;;2.40;2.03;;;;;;;;;;5032016;28;20229;-79
2022/07/16 14:00:00;;;;;;;2.65;2.45;;;;;;;;;;5034161;28;20276;-82
2022/07/16 14:02:28;;;;;;;2.95;2.75;;;;;;;;;;5034105;28;20436;-81
2022/07/16 14:04:55;;;;;;;2.75;2.55;;;;;;;;;;5033228;28;20214;-81
2022/07/16 14:07:22;;;;;;;5.85;2.90;;;;;;;;;;5016653;28;20206;-81
2022/07/16 14:09:50;;;;;;;2.17;2.08;;;;;;;;;;5034059;28;20237;-81
2022/07/16 14:12:17;;;;;;;2.80;2.60;;;;;;;;;;5016229;28;20322;-82
2022/07/16 14:14:44;;;;;;;2.65;2.45;;;;;;;;;;5032265;28;20392;-82
2022/07/16 14:17:13;;;;;;;2.80;2.60;;;;;;;;;;5032732;28;20771;-81
2022/07/16 14:19:49;;;;;;;5.28;2.40;;;;;;;;;;5033164;28;20310;-82
2022/07/16 14:22:16;;;;;;;2.58;2.38;;;;;;;;;;5034323;28;20289;-81
2022/07/16 14:24:43;;;;;;;5.25;3.15;;;;;;;;;;5032222;28;20253;-80
2022/07/16 14:27:11;;;;;;;2.47;2.30;;;;;;;;;;5031874;28;20207;-80
2022/07/16 14:29:38;;;;;;;3.95;2.65;;;;;;;;;;5012483;28;20222;-83
2022/07/16 14:32:09;;;;;;;3.78;2.60;;;;;;;;;;5033852;28;20207;-82
2022/07/16 14:34:41;;;;;;;3.05;2.80;;;;;;;;;;5032532;28;20203;-82
2022/07/16 14:37:08;;;;;;;2.83;2.63;;;;;;;;;;5033688;28;20294;-83
2022/07/16 14:39:35;;;;;;;4.90;2.63;;;;;;;;;;5033833;28;20285;-82
2022/07/16 14:42:03;;;;;;;3.25;3.00;;;;;;;;;;5033158;28;20272;-83
2022/07/16 14:44:30;;;;;;;4.18;2.70;;;;;;;;;;5015624;28;20285;-82
2022/07/16 14:46:58;;;;;;;3.30;2.70;;;;;;;;;;4999393;28;20272;-83
2022/07/16 14:49:25;;;;;;;2.90;2.70;;;;;;;;;;5033233;28;20625;-83
2022/07/16 14:51:57;;;;;;;2.88;2.65;;;;;;;;;;5027278;28;20660;-79
2022/07/16 14:54:24;;;;;;;3.10;2.90;;;;;;;;;;5031151;28;20202;-81
2022/07/16 14:56:52;;;;;;;2.97;2.55;;;;;;;;;;5031692;28;20696;-81
2022/07/16 14:59:19;;;;;;;5.47;3.10;;;;;;;;;;5031934;28;20677;-83
2022/07/16 15:01:46;;;;;;;3.10;2.45;;;;;;;;;;5030938;28;20214;-80